sensor_id;sensor_type;location;lat;lon;timestamp;pressure;altitude;pressure_sealevel;temperature;humidity
69842;BME280;57138;51.326;-0.068;2023-07-08T00:00:16;99515.19;;;22.13;48.54
69842;BME280;57138;51.326;-0.068;2023-07-08T00:02:43;99514.13;;;22.09;48.33
69842;BME280;57138;51.326;-0.068;2023-07-08T00:05:10;99509.81;;;22.03;48.82
69842;BME280;57138;51.326;-0.068;2023-07-08T00:07:37;99513.66;;;22.02;48.99
69842;BME280;57138;51.326;-0.068;2023-07-08T00:10:11;99489.25;;;21.86;49.05
69842;BME280;57138;51.326;-0.068;2023-07-08T00:12:37;99485.97;;;21.84;48.83
69842;BME280;57138;51.326;-0.068;2023-07-08T00:15:04;99511.50;;;21.94;49.38
69842;BME280;57138;51.326;-0.068;2023-07-08T00:17:30;99508.81;;;21.88;49.45
69842;BME280;57138;51.326;-0.068;2023-07-08T00:19:55;99503.94;;;21.85;49.34
69842;BME280;57138;51.326;-0.068;2023-07-08T00:22:21;99502.84;;;21.81;49.68
69842;BME280;57138;51.326;-0.068;2023-07-08T00:24:50;99502.06;;;21.81;49.43
69842;BME280;57138;51.326;-0.068;2023-07-08T00:27:15;99496.91;;;21.79;49.67
69842;BME280;57138;51.326;-0.068;2023-07-08T00:29:41;99500.19;;;21.76;49.76
69842;BME280;57138;51.326;-0.068;2023-07-08T00:32:15;99491.22;;;21.70;49.88
69842;BME280;57138;51.326;-0.068;2023-07-08T00:34:41;99468.69;;;21.60;49.75
69842;BME280;57138;51.326;-0.068;2023-07-08T00:37:13;99479.56;;;21.60;50.25
69842;BME280;57138;51.326;-0.068;2023-07-08T00:39:39;99473.09;;;21.56;49.98
69842;BME280;57138;51.326;-0.068;2023-07-08T00:42:24;99488.84;;;21.59;50.21
69842;BME280;57138;51.326;-0.068;2023-07-08T00:44:49;99487.44;;;21.61;49.54
69842;BME280;57138;51.326;-0.068;2023-07-08T00:47:15;99486.16;;;21.53;49.96
69842;BME280;57138;51.326;-0.068;2023-07-08T00:49:49;99487.75;;;21.54;50.69
69842;BME280;57138;51.326;-0.068;2023-07-08T00:52:19;99482.34;;;21.49;50.11
69842;BME280;57138;51.326;-0.068;2023-07-08T00:54:45;99485.31;;;21.48;50.47
69842;BME280;57138;51.326;-0.068;2023-07-08T00:57:11;99482.88;;;21.46;50.32
69842;BME280;57138;51.326;-0.068;2023-07-08T00:59:40;99476.38;;;21.47;50.40
69842;BME280;57138;51.326;-0.068;2023-07-08T01:02:09;99461.44;;;21.34;50.46
69842;BME280;57138;51.326;-0.068;2023-07-08T01:04:54;99478.53;;;21.45;50.38
69842;BME280;57138;51.326;-0.068;2023-07-08T01:07:24;99468.22;;;21.42;50.34
69842;BME280;57138;51.326;-0.068;2023-07-08T01:09:57;99471.47;;;21.44;50.41
69842;BME280;57138;51.326;-0.068;2023-07-08T01:12:31;99446.53;;;21.32;50.51
69842;BME280;57138;51.326;-0.068;2023-07-08T01:14:59;99462.78;;;21.42;50.15
69842;BME280;57138;51.326;-0.068;2023-07-08T01:17:28;99451.69;;;21.33;50.09
69842;BME280;57138;51.326;-0.068;2023-07-08T01:19:58;99459.53;;;21.40;50.38
69842;BME280;57138;51.326;-0.068;2023-07-08T01:22:24;99445.16;;;21.29;50.29
69842;BME280;57138;51.326;-0.068;2023-07-08T01:24:50;99456.28;;;21.38;50.20
69842;BME280;57138;51.326;-0.068;2023-07-08T01:27:18;99447.56;;;21.36;50.51
69842;BME280;57138;51.326;-0.068;2023-07-08T01:29:45;99436.75;;;21.26;49.92
69842;BME280;57138;51.326;-0.068;2023-07-08T01:32:13;99438.63;;;21.25;49.99
69842;BME280;57138;51.326;-0.068;2023-07-08T01:34:44;99424.00;;;21.21;50.47
69842;BME280;57138;51.326;-0.068;2023-07-08T01:37:47;99439.44;;;21.31;49.90
69842;BME280;57138;51.326;-0.068;2023-07-08T01:40:34;99449.75;;;21.34;50.43
69842;BME280;57138;51.326;-0.068;2023-07-08T01:43:00;99439.47;;;21.26;50.53
69842;BME280;57138;51.326;-0.068;2023-07-08T01:45:33;99442.19;;;21.26;50.47
69842;BME280;57138;51.326;-0.068;2023-07-08T01:48:03;99426.44;;;21.23;50.15
69842;BME280;57138;51.326;-0.068;2023-07-08T01:50:31;99437.28;;;21.28;50.05
69842;BME280;57138;51.326;-0.068;2023-07-08T01:52:59;99441.06;;;21.27;50.31
69842;BME280;57138;51.326;-0.068;2023-07-08T01:55:27;99443.25;;;21.30;50.22
69842;BME280;57138;51.326;-0.068;2023-07-08T01:57:54;99424.25;;;21.25;50.39
69842;BME280;57138;51.326;-0.068;2023-07-08T02:00:21;99402.28;;;21.11;50.04
69842;BME280;57138;51.326;-0.068;2023-07-08T02:02:47;99428.56;;;21.31;50.59
69842;BME280;57138;51.326;-0.068;2023-07-08T02:05:12;99425.03;;;21.30;50.71
69842;BME280;57138;51.326;-0.068;2023-07-08T02:07:38;99419.63;;;21.25;50.32
69842;BME280;57138;51.326;-0.068;2023-07-08T02:10:04;99433.41;;;21.39;50.36
69842;BME280;57138;51.326;-0.068;2023-07-08T02:12:29;99430.41;;;21.41;50.36
69842;BME280;57138;51.326;-0.068;2023-07-08T02:14:54;99424.13;;;21.45;49.93
69842;BME280;57138;51.326;-0.068;2023-07-08T02:17:22;99422.25;;;21.41;50.36
69842;BME280;57138;51.326;-0.068;2023-07-08T02:19:48;99401.34;;;21.41;50.24
69842;BME280;57138;51.326;-0.068;2023-07-08T02:22:13;99416.53;;;21.52;49.99
69842;BME280;57138;51.326;-0.068;2023-07-08T02:24:38;99409.16;;;21.53;49.88
69842;BME280;57138;51.326;-0.068;2023-07-08T02:27:04;99410.81;;;21.54;49.57
69842;BME280;57138;51.326;-0.068;2023-07-08T02:29:29;99416.81;;;21.51;49.79
69842;BME280;57138;51.326;-0.068;2023-07-08T02:31:57;99421.94;;;21.58;50.11
69842;BME280;57138;51.326;-0.068;2023-07-08T02:34:22;99414.28;;;21.60;49.61
69842;BME280;57138;51.326;-0.068;2023-07-08T02:36:48;99419.44;;;21.61;49.59
69842;BME280;57138;51.326;-0.068;2023-07-08T02:39:14;99423.81;;;21.62;49.78
69842;BME280;57138;51.326;-0.068;2023-07-08T02:41:39;99419.16;;;21.63;49.78
69842;BME280;57138;51.326;-0.068;2023-07-08T02:44:04;99425.16;;;21.60;50.06
69842;BME280;57138;51.326;-0.068;2023-07-08T02:46:30;99423.03;;;21.51;49.71
69842;BME280;57138;51.326;-0.068;2023-07-08T02:48:55;99417.31;;;21.58;49.94
69842;BME280;57138;51.326;-0.068;2023-07-08T02:51:21;99417.59;;;21.57;49.88
69842;BME280;57138;51.326;-0.068;2023-07-08T02:53:49;99423.31;;;21.55;49.96
69842;BME280;57138;51.326;-0.068;2023-07-08T02:56:15;99440.13;;;21.62;49.90
69842;BME280;57138;51.326;-0.068;2023-07-08T02:58:40;99426.03;;;21.55;49.83
69842;BME280;57138;51.326;-0.068;2023-07-08T03:01:05;99429.00;;;21.59;50.47
69842;BME280;57138;51.326;-0.068;2023-07-08T03:03:31;99440.44;;;21.56;50.12
69842;BME280;57138;51.326;-0.068;2023-07-08T03:05:59;99435.56;;;21.52;50.50
69842;BME280;57138;51.326;-0.068;2023-07-08T03:08:26;99433.66;;;21.48;50.42
69842;BME280;57138;51.326;-0.068;2023-07-08T03:11:00;99418.22;;;21.38;51.33
69842;BME280;57138;51.326;-0.068;2023-07-08T03:13:27;99425.25;;;21.39;50.69
69842;BME280;57138;51.326;-0.068;2023-07-08T03:15:52;99440.53;;;21.35;50.82
69842;BME280;57138;51.326;-0.068;2023-07-08T03:18:20;99429.97;;;21.23;51.00
69842;BME280;57138;51.326;-0.068;2023-07-08T03:20:47;99434.03;;;21.26;51.38
69842;BME280;57138;51.326;-0.068;2023-07-08T03:23:13;99430.25;;;21.16;50.96
69842;BME280;57138;51.326;-0.068;2023-07-08T03:25:38;99444.66;;;21.17;51.74
69842;BME280;57138;51.326;-0.068;2023-07-08T03:28:04;99427.03;;;21.09;51.84
69842;BME280;57138;51.326;-0.068;2023-07-08T03:30:38;99426.81;;;21.00;52.27
69842;BME280;57138;51.326;-0.068;2023-07-08T03:33:03;99448.25;;;21.07;52.05
69842;BME280;57138;51.326;-0.068;2023-07-08T03:35:28;99444.44;;;21.03;51.99
69842;BME280;57138;51.326;-0.068;2023-07-08T03:37:54;99444.19;;;20.99;52.59
69842;BME280;57138;51.326;-0.068;2023-07-08T03:40:19;99451.00;;;20.92;52.72
69842;BME280;57138;51.326;-0.068;2023-07-08T03:42:44;99436.88;;;20.90;52.64
69842;BME280;57138;51.326;-0.068;2023-07-08T03:45:10;99441.75;;;20.88;53.44
69842;BME280;57138;51.326;-0.068;2023-07-08T03:47:35;99443.97;;;20.80;53.11
69842;BME280;57138;51.326;-0.068;2023-07-08T03:50:01;99448.84;;;20.78;53.36
69842;BME280;57138;51.326;-0.068;2023-07-08T03:52:26;99454.84;;;20.75;53.87
69842;BME280;57138;51.326;-0.068;2023-07-08T03:54:51;99435.25;;;20.63;53.78
69842;BME280;57138;51.326;-0.068;2023-07-08T03:57:17;99444.00;;;20.65;53.78
69842;BME280;57138;51.326;-0.068;2023-07-08T03:59:44;99454.28;;;20.63;54.01
69842;BME280;57138;51.326;-0.068;2023-07-08T04:02:10;99455.38;;;20.62;54.25
69842;BME280;57138;51.326;-0.068;2023-07-08T04:04:36;99459.19;;;20.61;54.51
69842;BME280;57138;51.326;-0.068;2023-07-08T04:07:04;99450.78;;;20.52;54.78
69842;BME280;57138;51.326;-0.068;2023-07-08T04:09:29;99466.81;;;20.54;54.51
69842;BME280;57138;51.326;-0.068;2023-07-08T04:11:55;99464.63;;;20.51;54.93
69842;BME280;57138;51.326;-0.068;2023-07-08T04:14:21;99460.28;;;20.55;54.95
69842;BME280;57138;51.326;-0.068;2023-07-08T04:16:53;99467.34;;;20.56;54.92
69842;BME280;57138;51.326;-0.068;2023-07-08T04:19:22;99463.53;;;20.52;55.45
69842;BME280;57138;51.326;-0.068;2023-07-08T04:21:48;99459.22;;;20.51;55.41
69842;BME280;57138;51.326;-0.068;2023-07-08T04:24:15;99467.63;;;20.54;55.40
69842;BME280;57138;51.326;-0.068;2023-07-08T04:26:42;99469.53;;;20.54;55.53
69842;BME280;57138;51.326;-0.068;2023-07-08T04:29:15;99479.28;;;20.55;55.82
69842;BME280;57138;51.326;-0.068;2023-07-08T04:31:41;99457.84;;;20.43;56.07
69842;BME280;57138;51.326;-0.068;2023-07-08T04:34:08;99457.84;;;20.48;56.22
69842;BME280;57138;51.326;-0.068;2023-07-08T04:36:33;99452.69;;;20.46;56.59
69842;BME280;57138;51.326;-0.068;2023-07-08T04:38:59;99461.34;;;20.48;56.31
69842;BME280;57138;51.326;-0.068;2023-07-08T04:41:25;99467.34;;;20.56;56.25
69842;BME280;57138;51.326;-0.068;2023-07-08T04:43:52;99461.91;;;20.56;56.49
69842;BME280;57138;51.326;-0.068;2023-07-08T04:46:48;99466.53;;;20.60;56.65
69842;BME280;57138;51.326;-0.068;2023-07-08T04:49:16;99447.78;;;20.54;56.51
69842;BME280;57138;51.326;-0.068;2023-07-08T04:51:42;99457.00;;;20.63;56.78
69842;BME280;57138;51.326;-0.068;2023-07-08T04:54:08;99463.53;;;20.67;56.77
69842;BME280;57138;51.326;-0.068;2023-07-08T04:56:38;99460.84;;;20.67;57.20
69842;BME280;57138;51.326;-0.068;2023-07-08T04:59:05;99457.00;;;20.73;56.60
69842;BME280;57138;51.326;-0.068;2023-07-08T05:01:31;99465.16;;;20.78;57.02
69842;BME280;57138;51.326;-0.068;2023-07-08T05:03:57;99464.59;;;20.81;56.78
69842;BME280;57138;51.326;-0.068;2023-07-08T05:06:22;99475.16;;;20.98;57.08
69842;BME280;57138;51.326;-0.068;2023-07-08T05:08:48;99472.16;;;21.00;57.11
69842;BME280;57138;51.326;-0.068;2023-07-08T05:11:13;99482.75;;;21.12;56.86
69842;BME280;57138;51.326;-0.068;2023-07-08T05:13:38;99468.88;;;21.08;56.76
69842;BME280;57138;51.326;-0.068;2023-07-08T05:16:04;99485.69;;;21.26;56.71
69842;BME280;57138;51.326;-0.068;2023-07-08T05:18:30;99487.03;;;21.33;56.93
69842;BME280;57138;51.326;-0.068;2023-07-08T05:20:55;99486.72;;;21.40;56.43
69842;BME280;57138;51.326;-0.068;2023-07-08T05:23:21;99490.53;;;21.49;56.61
69842;BME280;57138;51.326;-0.068;2023-07-08T05:25:48;99482.88;;;21.46;56.28
69842;BME280;57138;51.326;-0.068;2023-07-08T05:28:13;99492.91;;;21.61;56.30
69842;BME280;57138;51.326;-0.068;2023-07-08T05:30:40;99480.97;;;21.57;56.11
69842;BME280;57138;51.326;-0.068;2023-07-08T05:33:06;99490.97;;;21.67;56.13
69842;BME280;57138;51.326;-0.068;2023-07-08T05:35:32;99486.91;;;21.64;56.12
69842;BME280;57138;51.326;-0.068;2023-07-08T05:37:57;99490.13;;;21.71;55.97
69842;BME280;57138;51.326;-0.068;2023-07-08T05:40:22;99497.97;;;21.78;55.77
69842;BME280;57138;51.326;-0.068;2023-07-08T05:42:48;99508.03;;;21.83;56.15
69842;BME280;57138;51.326;-0.068;2023-07-08T05:45:13;99494.69;;;21.81;55.75
69842;BME280;57138;51.326;-0.068;2023-07-08T05:47:39;99500.41;;;21.80;55.71
69842;BME280;57138;51.326;-0.068;2023-07-08T05:50:05;99494.69;;;21.86;55.83
69842;BME280;57138;51.326;-0.068;2023-07-08T05:52:30;99503.66;;;21.87;56.00
69842;BME280;57138;51.326;-0.068;2023-07-08T05:54:56;99516.38;;;21.97;55.66
69842;BME280;57138;51.326;-0.068;2023-07-08T05:57:22;99512.34;;;21.94;55.75
69842;BME280;57138;51.326;-0.068;2023-07-08T05:59:48;99502.56;;;21.88;56.07
69842;BME280;57138;51.326;-0.068;2023-07-08T06:02:16;99526.19;;;21.98;55.91
69842;BME280;57138;51.326;-0.068;2023-07-08T06:04:41;99506.06;;;21.94;56.00
69842;BME280;57138;51.326;-0.068;2023-07-08T06:07:07;99508.22;;;22.02;56.60
69842;BME280;57138;51.326;-0.068;2023-07-08T06:09:32;99504.91;;;22.05;55.95
69842;BME280;57138;51.326;-0.068;2023-07-08T06:11:58;99504.88;;;22.10;55.93
69842;BME280;57138;51.326;-0.068;2023-07-08T06:14:23;99504.03;;;22.15;56.02
69842;BME280;57138;51.326;-0.068;2023-07-08T06:16:49;99506.47;;;22.16;55.85
69842;BME280;57138;51.326;-0.068;2023-07-08T06:19:14;99492.84;;;22.16;56.16
69842;BME280;57138;51.326;-0.068;2023-07-08T06:21:42;99509.66;;;22.23;55.99
69842;BME280;57138;51.326;-0.068;2023-07-08T06:24:07;99501.50;;;22.23;55.94
69842;BME280;57138;51.326;-0.068;2023-07-08T06:26:33;99512.13;;;22.30;55.84
69842;BME280;57138;51.326;-0.068;2023-07-08T06:28:59;99531.34;;;22.44;55.80
69842;BME280;57138;51.326;-0.068;2023-07-08T06:31:25;99543.84;;;22.50;55.60
69842;BME280;57138;51.326;-0.068;2023-07-08T06:33:50;99554.91;;;22.59;55.76
69842;BME280;57138;51.326;-0.068;2023-07-08T06:36:16;99557.13;;;22.57;55.45
69842;BME280;57138;51.326;-0.068;2023-07-08T06:38:41;99558.44;;;22.65;56.49
69842;BME280;57138;51.326;-0.068;2023-07-08T06:41:07;99552.41;;;22.68;56.01
69842;BME280;57138;51.326;-0.068;2023-07-08T06:43:32;99556.94;;;22.77;55.74
69842;BME280;57138;51.326;-0.068;2023-07-08T06:45:57;99563.97;;;22.84;55.89
69842;BME280;57138;51.326;-0.068;2023-07-08T06:48:23;99556.09;;;22.82;56.16
69842;BME280;57138;51.326;-0.068;2023-07-08T06:50:49;99582.66;;;23.01;55.90
69842;BME280;57138;51.326;-0.068;2023-07-08T06:53:15;99577.94;;;23.11;56.26
69842;BME280;57138;51.326;-0.068;2023-07-08T06:55:43;99589.56;;;23.22;55.83
69842;BME280;57138;51.326;-0.068;2023-07-08T06:58:08;99574.50;;;23.25;55.81
69842;BME280;57138;51.326;-0.068;2023-07-08T07:00:34;99576.28;;;23.40;55.67
69842;BME280;57138;51.326;-0.068;2023-07-08T07:02:59;99584.88;;;23.52;56.13
69842;BME280;57138;51.326;-0.068;2023-07-08T07:05:25;99574.94;;;23.61;55.94
69842;BME280;57138;51.326;-0.068;2023-07-08T07:07:50;99579.69;;;23.75;55.47
69842;BME280;57138;51.326;-0.068;2023-07-08T07:10:19;99572.63;;;23.74;56.28
69842;BME280;57138;51.326;-0.068;2023-07-08T07:12:45;99568.31;;;23.67;55.93
69842;BME280;57138;51.326;-0.068;2023-07-08T07:15:10;99557.22;;;23.59;56.46
69842;BME280;57138;51.326;-0.068;2023-07-08T07:17:35;99558.16;;;23.49;56.74
69842;BME280;57138;51.326;-0.068;2023-07-08T07:20:02;99573.38;;;23.55;57.09
69842;BME280;57138;51.326;-0.068;2023-07-08T07:22:28;99577.28;;;23.49;57.31
69842;BME280;57138;51.326;-0.068;2023-07-08T07:24:54;99579.50;;;23.47;57.27
69842;BME280;57138;51.326;-0.068;2023-07-08T07:27:20;99580.06;;;23.44;57.53
69842;BME280;57138;51.326;-0.068;2023-07-08T07:29:48;99565.44;;;23.35;57.63
69842;BME280;57138;51.326;-0.068;2023-07-08T07:32:15;99574.31;;;23.45;57.67
69842;BME280;57138;51.326;-0.068;2023-07-08T07:34:41;99579.00;;;23.40;57.53
69842;BME280;57138;51.326;-0.068;2023-07-08T07:37:11;99581.66;;;23.45;57.71
69842;BME280;57138;51.326;-0.068;2023-07-08T07:39:37;99583.78;;;23.53;57.86
69842;BME280;57138;51.326;-0.068;2023-07-08T07:42:03;99582.03;;;23.62;58.65
69842;BME280;57138;51.326;-0.068;2023-07-08T07:44:28;99574.88;;;23.66;58.44
69842;BME280;57138;51.326;-0.068;2023-07-08T07:46:55;99600.34;;;23.81;58.13
69842;BME280;57138;51.326;-0.068;2023-07-08T07:49:20;99587.25;;;23.83;57.86
69842;BME280;57138;51.326;-0.068;2023-07-08T07:51:46;99585.69;;;23.77;57.93
69842;BME280;57138;51.326;-0.068;2023-07-08T07:54:12;99602.50;;;23.89;57.95
69842;BME280;57138;51.326;-0.068;2023-07-08T07:56:37;99601.44;;;23.85;57.91
69842;BME280;57138;51.326;-0.068;2023-07-08T07:59:03;99614.50;;;23.88;58.09
69842;BME280;57138;51.326;-0.068;2023-07-08T08:01:29;99618.03;;;23.89;58.34
69842;BME280;57138;51.326;-0.068;2023-07-08T08:03:54;99610.47;;;23.80;57.78
69842;BME280;57138;51.326;-0.068;2023-07-08T08:06:20;99612.91;;;23.82;58.50
69842;BME280;57138;51.326;-0.068;2023-07-08T08:08:45;99609.72;;;23.75;58.35
69842;BME280;57138;51.326;-0.068;2023-07-08T08:11:11;99612.00;;;23.67;58.53
69842;BME280;57138;51.326;-0.068;2023-07-08T08:13:37;99633.75;;;23.73;58.70
69842;BME280;57138;51.326;-0.068;2023-07-08T08:16:03;99643.94;;;23.67;58.99
69842;BME280;57138;51.326;-0.068;2023-07-08T08:18:29;99644.38;;;23.50;59.67
69842;BME280;57138;51.326;-0.068;2023-07-08T08:20:55;99662.03;;;23.58;59.68
69842;BME280;57138;51.326;-0.068;2023-07-08T08:23:20;99649.38;;;23.43;60.57
69842;BME280;57138;51.326;-0.068;2023-07-08T08:25:46;99654.25;;;23.46;59.94
69842;BME280;57138;51.326;-0.068;2023-07-08T08:28:11;99690.13;;;23.58;60.64
69842;BME280;57138;51.326;-0.068;2023-07-08T08:30:38;99690.66;;;23.60;60.69
69842;BME280;57138;51.326;-0.068;2023-07-08T08:33:03;99671.19;;;23.43;60.61
69842;BME280;57138;51.326;-0.068;2023-07-08T08:35:29;99683.16;;;23.47;61.23
69842;BME280;57138;51.326;-0.068;2023-07-08T08:37:54;99697.75;;;23.61;61.11
69842;BME280;57138;51.326;-0.068;2023-07-08T08:40:20;99688.50;;;23.57;60.72
69842;BME280;57138;51.326;-0.068;2023-07-08T08:42:52;99693.38;;;23.60;60.51
69842;BME280;57138;51.326;-0.068;2023-07-08T08:45:20;99681.25;;;23.47;60.48
69842;BME280;57138;51.326;-0.068;2023-07-08T08:47:54;99690.19;;;23.53;60.53
69842;BME280;57138;51.326;-0.068;2023-07-08T08:50:29;99696.69;;;23.57;60.92
69842;BME280;57138;51.326;-0.068;2023-07-08T08:52:56;99703.84;;;23.77;60.73
69842;BME280;57138;51.326;-0.068;2023-07-08T08:55:23;99696.63;;;23.92;60.75
69842;BME280;57138;51.326;-0.068;2023-07-08T09:03:29;99695.00;;;24.96;59.30
69842;BME280;57138;51.326;-0.068;2023-07-08T09:05:58;99686.88;;;25.24;57.76
69842;BME280;57138;51.326;-0.068;2023-07-08T09:08:31;99686.56;;;25.44;55.69
69842;BME280;57138;51.326;-0.068;2023-07-08T09:11:01;99675.72;;;25.39;55.53
69842;BME280;57138;51.326;-0.068;2023-07-08T09:13:34;99702.31;;;25.53;55.78
69842;BME280;57138;51.326;-0.068;2023-07-08T09:19:00;99705.44;;;25.60;55.92
69842;BME280;57138;51.326;-0.068;2023-07-08T09:24:09;99710.66;;;25.75;54.73
69842;BME280;57138;51.326;-0.068;2023-07-08T09:26:39;99718.06;;;25.89;54.12
69842;BME280;57138;51.326;-0.068;2023-07-08T09:29:09;99719.22;;;26.01;54.46
69842;BME280;57138;51.326;-0.068;2023-07-08T09:31:40;99717.41;;;26.11;53.91
69842;BME280;57138;51.326;-0.068;2023-07-08T09:36:41;99733.59;;;26.35;52.48
69842;BME280;57138;51.326;-0.068;2023-07-08T09:39:13;99724.88;;;26.47;51.46
69842;BME280;57138;51.326;-0.068;2023-07-08T09:41:41;99730.94;;;26.58;49.90
69842;BME280;57138;51.326;-0.068;2023-07-08T09:46:39;99736.84;;;26.65;49.99
69842;BME280;57138;51.326;-0.068;2023-07-08T09:51:41;99729.72;;;26.78;48.70
69842;BME280;57138;51.326;-0.068;2023-07-08T09:54:08;99726.97;;;26.78;49.01
69842;BME280;57138;51.326;-0.068;2023-07-08T09:56:33;99732.22;;;26.88;48.45
69842;BME280;57138;51.326;-0.068;2023-07-08T09:58:59;99738.16;;;27.04;48.79
69842;BME280;57138;51.326;-0.068;2023-07-08T10:01:26;99731.31;;;27.15;47.06
69842;BME280;57138;51.326;-0.068;2023-07-08T10:03:58;99739.09;;;27.22;45.92
69842;BME280;57138;51.326;-0.068;2023-07-08T10:06:30;99749.09;;;27.18;46.19
69842;BME280;57138;51.326;-0.068;2023-07-08T10:09:00;99751.13;;;27.12;47.83
69842;BME280;57138;51.326;-0.068;2023-07-08T10:11:33;99751.28;;;27.07;46.64
69842;BME280;57138;51.326;-0.068;2023-07-08T10:16:52;99755.66;;;26.94;45.52
69842;BME280;57138;51.326;-0.068;2023-07-08T10:19:19;99757.09;;;26.92;46.62
69842;BME280;57138;51.326;-0.068;2023-07-08T10:24:39;99774.50;;;26.87;47.06
69842;BME280;57138;51.326;-0.068;2023-07-08T10:29:52;99799.38;;;26.63;46.82
69842;BME280;57138;51.326;-0.068;2023-07-08T10:32:28;99806.50;;;26.50;46.80
69842;BME280;57138;51.326;-0.068;2023-07-08T10:37:55;99829.63;;;26.16;47.34
69842;BME280;57138;51.326;-0.068;2023-07-08T10:40:36;99848.84;;;25.97;48.00
69842;BME280;57138;51.326;-0.068;2023-07-08T10:43:23;99856.13;;;25.88;48.85
69842;BME280;57138;51.326;-0.068;2023-07-08T10:49:10;99853.22;;;25.65;49.97
69842;BME280;57138;51.326;-0.068;2023-07-08T11:05:44;99815.28;;;25.72;49.39
69842;BME280;57138;51.326;-0.068;2023-07-08T11:10:49;99794.44;;;25.76;49.41
69842;BME280;57138;51.326;-0.068;2023-07-08T11:13:21;99784.38;;;25.72;49.50
69842;BME280;57138;51.326;-0.068;2023-07-08T11:15:53;99772.38;;;25.68;49.16
69842;BME280;57138;51.326;-0.068;2023-07-08T11:18:25;99764.56;;;25.61;49.16
69842;BME280;57138;51.326;-0.068;2023-07-08T11:23:36;99766.28;;;25.57;48.33
69842;BME280;57138;51.326;-0.068;2023-07-08T11:28:40;99788.78;;;25.54;49.83
69842;BME280;57138;51.326;-0.068;2023-07-08T11:31:07;99806.38;;;25.47;49.32
69842;BME280;57138;51.326;-0.068;2023-07-08T11:33:33;99800.56;;;25.35;50.14
69842;BME280;57138;51.326;-0.068;2023-07-08T11:36:00;99806.88;;;25.36;49.88
69842;BME280;57138;51.326;-0.068;2023-07-08T11:38:28;99805.59;;;25.28;49.80
69842;BME280;57138;51.326;-0.068;2023-07-08T11:43:20;99787.75;;;25.30;50.46
69842;BME280;57138;51.326;-0.068;2023-07-08T11:45:49;99763.00;;;25.22;51.10
69842;BME280;57138;51.326;-0.068;2023-07-08T11:48:24;99779.63;;;25.25;51.18
69842;BME280;57138;51.326;-0.068;2023-07-08T11:50:51;99758.78;;;25.10;51.28
69842;BME280;57138;51.326;-0.068;2023-07-08T11:56:00;99772.03;;;25.03;52.54
69842;BME280;57138;51.326;-0.068;2023-07-08T11:58:31;99765.72;;;24.84;53.10
69842;BME280;57138;51.326;-0.068;2023-07-08T12:03:47;99782.78;;;24.75;53.44
69842;BME280;57138;51.326;-0.068;2023-07-08T12:08:55;99798.81;;;24.63;56.46
69842;BME280;57138;51.326;-0.068;2023-07-08T12:11:30;99816.03;;;24.64;60.83
69842;BME280;57138;51.326;-0.068;2023-07-08T12:14:02;99832.81;;;24.52;62.21
69842;BME280;57138;51.326;-0.068;2023-07-08T12:16:30;99810.66;;;24.29;61.98
69842;BME280;57138;51.326;-0.068;2023-07-08T12:19:01;99841.34;;;24.21;63.82
69842;BME280;57138;51.326;-0.068;2023-07-08T12:21:34;99868.78;;;24.05;65.43
69842;BME280;57138;51.326;-0.068;2023-07-08T12:24:04;99893.00;;;23.83;65.35
69842;BME280;57138;51.326;-0.068;2023-07-08T12:26:31;99877.34;;;23.54;65.81
69842;BME280;57138;51.326;-0.068;2023-07-08T12:28:57;99867.16;;;23.30;66.35
69842;BME280;57138;51.326;-0.068;2023-07-08T12:31:23;99831.47;;;23.22;67.94
69842;BME280;57138;51.326;-0.068;2023-07-08T12:33:49;99845.38;;;23.20;68.77
69842;BME280;57138;51.326;-0.068;2023-07-08T12:36:21;99880.91;;;23.10;71.10
69842;BME280;57138;51.326;-0.068;2023-07-08T12:38:48;99900.03;;;22.94;71.10
69842;BME280;57138;51.326;-0.068;2023-07-08T12:41:22;99915.34;;;22.80;72.49
69842;BME280;57138;51.326;-0.068;2023-07-08T12:43:49;99909.41;;;22.63;71.72
69842;BME280;57138;51.326;-0.068;2023-07-08T12:46:17;99896.34;;;22.49;72.89
69842;BME280;57138;51.326;-0.068;2023-07-08T12:48:42;99889.81;;;22.50;73.25
69842;BME280;57138;51.326;-0.068;2023-07-08T12:51:14;99867.75;;;22.41;75.39
69842;BME280;57138;51.326;-0.068;2023-07-08T12:53:41;99876.47;;;22.49;74.68
69842;BME280;57138;51.326;-0.068;2023-07-08T12:56:06;99865.00;;;22.47;74.57
69842;BME280;57138;51.326;-0.068;2023-07-08T12:58:38;99857.94;;;22.40;75.85
69842;BME280;57138;51.326;-0.068;2023-07-08T13:01:06;99845.72;;;22.38;75.88
69842;BME280;57138;51.326;-0.068;2023-07-08T13:03:42;99854.69;;;22.38;77.67
69842;BME280;57138;51.326;-0.068;2023-07-08T13:06:10;99866.41;;;22.34;76.76
69842;BME280;57138;51.326;-0.068;2023-07-08T13:08:37;99841.31;;;22.26;77.81
69842;BME280;57138;51.326;-0.068;2023-07-08T13:11:05;99821.72;;;22.24;77.55
69842;BME280;57138;51.326;-0.068;2023-07-08T13:13:38;99831.00;;;22.34;78.62
69842;BME280;57138;51.326;-0.068;2023-07-08T13:16:05;99828.81;;;22.41;77.04
69842;BME280;57138;51.326;-0.068;2023-07-08T13:18:33;99827.69;;;22.52;77.73
69842;BME280;57138;51.326;-0.068;2023-07-08T13:21:00;99824.34;;;22.71;77.20
69842;BME280;57138;51.326;-0.068;2023-07-08T13:23:30;99814.41;;;22.95;78.35
69842;BME280;57138;51.326;-0.068;2023-07-08T13:25:56;99815.38;;;23.20;77.03
69842;BME280;57138;51.326;-0.068;2023-07-08T13:28:30;99828.91;;;23.36;76.43
69842;BME280;57138;51.326;-0.068;2023-07-08T13:31:03;99820.66;;;23.46;75.79
69842;BME280;57138;51.326;-0.068;2023-07-08T13:33:38;99815.16;;;23.51;75.17
69842;BME280;57138;51.326;-0.068;2023-07-08T13:36:05;99825.97;;;23.66;73.20
69842;BME280;57138;51.326;-0.068;2023-07-08T13:38:35;99825.41;;;23.69;74.26
69842;BME280;57138;51.326;-0.068;2023-07-08T13:41:05;99819.88;;;23.75;74.55
69842;BME280;57138;51.326;-0.068;2023-07-08T13:43:34;99811.97;;;23.73;73.24
69842;BME280;57138;51.326;-0.068;2023-07-08T13:46:00;99804.56;;;23.79;72.04
69842;BME280;57138;51.326;-0.068;2023-07-08T13:48:34;99826.25;;;23.99;73.73
69842;BME280;57138;51.326;-0.068;2023-07-08T13:51:17;99819.63;;;24.05;74.02
69842;BME280;57138;51.326;-0.068;2023-07-08T13:53:52;99821.50;;;24.10;73.22
69842;BME280;57138;51.326;-0.068;2023-07-08T13:56:26;99824.44;;;24.19;72.86
69842;BME280;57138;51.326;-0.068;2023-07-08T13:59:11;99809.31;;;24.27;73.67